Time;durP1;ratioP1;P1;durP2;ratioP2;P2;SDS_P1;SDS_P2;PMS_P1;PMS_P2;Temp;Humidity;BMP_temperature;BMP_pressure;BME280_temperature;BME280_humidity;BME280_pressure;Samples;Min_cycle;Max_cycle;Signal;HPM_P1;HPM_P2
2022/01/05 00:01:41;;;;;;;;;6.00;6.00;;;;;14.62;53.80;96855.81;6211974;28;97152;-68
2022/01/05 00:04:45;;;;;;;;;6.00;5.60;;;;;14.55;54.18;96872.47;6211632;28;96645;-68
2022/01/05 00:07:48;;;;;;;;;6.00;6.00;;;;;14.53;54.57;96871.16;6209947;28;97585;-66
2022/01/05 00:10:52;;;;;;;;;5.00;5.00;;;;;14.41;54.77;96885.19;6211027;28;97534;-66
2022/01/05 00:13:58;;;;;;;;;7.00;7.00;;;;;14.44;54.70;96895.41;6212761;28;97054;-68
2022/01/05 00:17:01;;;;;;;;;6.00;6.00;;;;;14.35;54.74;96905.28;6213474;28;97476;-68
2022/01/05 00:20:08;;;;;;;;;9.00;8.00;;;;;14.25;54.51;96908.16;6212972;28;97011;-67
2022/01/05 00:23:11;;;;;;;;;7.60;6.60;;;;;14.18;54.34;96905.78;6211945;28;97136;-68
2022/01/05 00:26:14;;;;;;;;;6.60;6.40;;;;;14.18;54.21;96902.28;6212647;28;97509;-68
2022/01/05 00:29:19;;;;;;;;;8.80;7.00;;;;;14.09;54.30;96912.97;6245737;27;96976;-68
2022/01/05 00:32:23;;;;;;;;;7.00;6.00;;;;;14.13;53.87;96918.59;6212759;28;97686;-67
2022/01/05 00:35:26;;;;;;;;;6.80;6.80;;;;;14.10;53.74;96911.88;6212796;28;97628;-68
2022/01/05 00:38:29;;;;;;;;;7.00;7.00;;;;;13.81;53.83;96903.88;6212112;28;97453;-65
2022/01/05 00:41:33;;;;;;;;;7.00;7.00;;;;;13.81;53.88;96917.41;6211718;28;97675;-65
2022/01/05 00:44:37;;;;;;;;;7.60;7.00;;;;;13.74;54.24;96935.91;6228192;28;97446;-65
2022/01/05 00:47:41;;;;;;;;;9.00;7.60;;;;;13.77;54.28;96931.81;6213345;28;97283;-66
2022/01/05 00:50:44;;;;;;;;;10.00;9.00;;;;;13.66;54.56;96930.31;6209594;28;96719;-64
2022/01/05 00:53:48;;;;;;;;;8.20;7.00;;;;;13.71;54.65;96925.66;6212816;28;96815;-67
2022/01/05 00:56:51;;;;;;;;;8.75;8.00;;;;;13.76;54.54;96922.88;6190885;28;96926;-67
2022/01/05 00:59:56;;;;;;;;;8.00;8.00;;;;;13.71;54.63;96931.06;6212758;28;96902;-65
2022/01/05 01:02:59;;;;;;;;;8.25;8.00;;;;;13.73;54.53;96922.66;6212160;28;97505;-65
2022/01/05 01:06:03;;;;;;;;;8.00;7.00;;;;;13.65;54.54;96926.00;6213201;28;97476;-67
2022/01/05 01:09:06;;;;;;;;;6.00;5.25;;;;;13.64;54.58;96938.72;6212419;28;98607;-67
2022/01/05 01:12:11;;;;;;;;;6.00;6.00;;;;;13.59;54.60;96933.38;6212784;28;96483;-65
2022/01/05 01:15:15;;;;;;;;;8.00;6.00;;;;;13.61;54.80;96946.63;6211345;28;97557;-68
2022/01/05 01:18:19;;;;;;;;;6.00;6.00;;;;;13.57;54.81;96951.00;6212277;28;97055;-67
2022/01/05 01:21:22;;;;;;;;;8.00;7.00;;;;;13.55;54.68;96950.47;6223132;28;97268;-67
2022/01/05 01:24:25;;;;;;;;;7.00;6.33;;;;;13.47;54.67;96938.38;6211789;28;98432;-67
2022/01/05 01:27:29;;;;;;;;;9.60;7.00;;;;;13.48;54.87;96964.38;6210576;28;96662;-65
2022/01/05 01:30:34;;;;;;;;;7.50;6.00;;;;;13.52;54.75;96978.94;6210299;28;99706;-67
2022/01/05 01:33:37;;;;;;;;;7.00;7.00;;;;;13.54;54.35;96973.22;6213146;28;97053;-67
2022/01/05 01:36:40;;;;;;;;;7.00;6.00;;;;;13.56;54.36;96969.16;6213488;28;97485;-68
2022/01/05 01:39:44;;;;;;;;;9.00;8.00;;;;;13.51;54.26;96961.06;6210867;28;96730;-68
2022/01/05 01:42:47;;;;;;;;;6.20;6.00;;;;;13.57;54.24;96953.72;6213053;28;97623;-66
2022/01/05 01:45:52;;;;;;;;;9.00;8.50;;;;;13.49;54.34;96957.84;6212801;28;96867;-68
2022/01/05 01:48:56;;;;;;;;;9.00;9.00;;;;;13.57;53.71;96962.66;6200758;28;97832;-66
2022/01/05 01:51:59;;;;;;;;;9.00;7.00;;;;;13.58;53.64;96971.56;6208334;28;97006;-66
2022/01/05 01:55:04;;;;;;;;;9.75;8.25;;;;;13.58;54.03;96966.16;6209367;28;96758;-68
2022/01/05 01:58:08;;;;;;;;;11.00;9.00;;;;;13.60;54.00;96962.06;6209575;28;96735;-68
2022/01/05 02:01:15;;;;;;;;;11.00;10.00;;;;;13.59;54.04;96973.16;6224740;28;97881;-68
2022/01/05 02:04:18;;;;;;;;;10.00;9.20;;;;;13.58;54.01;96977.81;6211939;28;96741;-66
2022/01/05 02:07:22;;;;;;;;;9.00;9.00;;;;;13.42;54.37;96979.84;6208968;27;96676;-65
2022/01/05 02:10:25;;;;;;;;;10.00;9.00;;;;;13.42;54.73;96982.56;6202732;28;97536;-68
2022/01/05 02:13:28;;;;;;;;;11.40;10.00;;;;;13.40;54.50;96990.13;6192446;28;96847;-68
2022/01/05 02:16:35;;;;;;;;;10.80;10.20;;;;;13.41;54.77;96990.94;6211713;28;96551;-68
2022/01/05 02:19:38;;;;;;;;;11.60;10.00;;;;;13.38;54.60;96991.53;6206758;28;97264;-68
2022/01/05 02:22:43;;;;;;;;;10.40;10.00;;;;;13.31;54.77;96991.84;6241546;27;97831;-68
2022/01/05 02:25:46;;;;;;;;;12.00;11.00;;;;;13.31;54.49;96999.16;6211399;28;97520;-65
2022/01/05 02:28:50;;;;;;;;;11.00;11.00;;;;;13.37;54.50;97008.84;6211796;28;97022;-68
2022/01/05 02:31:54;;;;;;;;;9.75;9.00;;;;;13.30;54.41;97008.38;6209653;28;96760;-68
2022/01/05 02:34:57;;;;;;;;;11.00;9.00;;;;;13.33;54.34;97005.94;6211277;28;97529;-67
2022/01/05 02:38:02;;;;;;;;;10.40;10.00;;;;;13.28;54.26;96999.75;6193588;28;96832;-66
2022/01/05 02:41:08;;;;;;;;;12.60;11.00;;;;;13.17;54.58;97000.91;6210645;28;96429;-68
2022/01/05 02:44:11;;;;;;;;;10.00;9.60;;;;;13.22;54.46;96998.16;6208439;28;96619;-65
2022/01/05 02:47:14;;;;;;;;;11.60;11.00;;;;;13.21;54.49;96999.25;6209791;28;98439;-65
2022/01/05 02:50:17;;;;;;;;;10.40;10.00;;;;;13.14;54.54;97010.44;6209652;28;97662;-67
2022/01/05 02:53:22;;;;;;;;;11.00;11.00;;;;;13.08;54.29;97006.09;6208363;28;96683;-65
2022/01/05 02:56:25;;;;;;;;;9.80;8.80;;;;;12.98;54.73;97003.50;6210609;28;97600;-65
2022/01/05 02:59:29;;;;;;;;;12.00;11.00;;;;;13.07;54.53;96995.56;6207880;28;96512;-65
2022/01/05 03:02:33;;;;;;;;;11.00;10.00;;;;;13.16;54.04;96997.41;6210176;28;97473;-65
2022/01/05 03:05:36;;;;;;;;;11.00;10.00;;;;;13.22;53.81;96998.97;6210355;28;96879;-67
2022/01/05 03:08:41;;;;;;;;;9.00;9.00;;;;;13.20;53.71;96984.91;6209993;28;97759;-65
2022/01/05 03:11:44;;;;;;;;;12.00;10.20;;;;;13.22;53.55;96977.34;6186787;28;96889;-68
2022/01/05 03:14:47;;;;;;;;;11.60;11.00;;;;;13.19;53.71;96990.63;6195733;28;96473;-67
2022/01/05 03:17:51;;;;;;;;;11.60;11.00;;;;;13.15;53.77;96997.69;6210888;28;97218;-67
2022/01/05 03:20:54;;;;;;;;;12.00;10.60;;;;;13.17;53.89;96987.41;6211359;28;96838;-65
2022/01/05 03:23:58;;;;;;;;;13.50;12.00;;;;;13.20;53.98;96982.22;6209385;28;98546;-67
2022/01/05 03:27:02;;;;;;;;;13.00;11.40;;;;;13.22;53.75;96973.81;6210846;28;97941;-65
2022/01/05 03:30:08;;;;;;;;;12.60;11.00;;;;;13.25;53.50;96957.00;6210866;28;96520;-66
2022/01/05 03:33:12;;;;;;;;;13.00;11.00;;;;;13.29;53.36;96948.03;6211722;28;98018;-67
2022/01/05 03:36:16;;;;;;;;;11.80;11.00;;;;;13.29;53.35;96936.44;6215566;28;96388;-68
2022/01/05 03:39:21;;;;;;;;;14.00;12.00;;;;;13.31;53.40;96945.03;6212852;28;96682;-65
2022/01/05 03:42:24;;;;;;;;;11.00;10.80;;;;;13.30;53.20;96943.44;6212421;28;96700;-65
2022/01/05 03:45:28;;;;;;;;;10.50;10.00;;;;;13.30;53.28;96946.94;6213094;28;98334;-68
2022/01/05 03:48:31;;;;;;;;;11.60;11.00;;;;;13.30;53.10;96946.13;6214247;28;96373;-65
2022/01/05 03:51:35;;;;;;;;;11.80;10.80;;;;;13.34;52.78;96939.84;6212071;28;97622;-68
2022/01/05 03:54:39;;;;;;;;;12.60;9.60;;;;;13.30;52.69;96927.19;6208917;28;96878;-68
2022/01/05 03:57:43;;;;;;;;;10.20;10.00;;;;;13.37;52.33;96933.09;6190608;28;97431;-65
2022/01/05 04:00:50;;;;;;;;;10.00;9.00;;;;;13.08;52.19;96899.81;6197552;28;96866;-68
2022/01/05 04:03:54;;;;;;;;;10.60;9.60;;;;;13.42;52.27;96951.97;6213965;28;97541;-67
2022/01/05 04:06:58;;;;;;;;;8.00;7.40;;;;;13.45;52.14;96945.97;6212392;28;98547;-67
2022/01/05 04:10:02;;;;;;;;;10.00;9.00;;;;;13.45;52.12;96933.25;6195604;28;96679;-68
2022/01/05 04:13:06;;;;;;;;;9.60;8.60;;;;;13.40;52.12;96935.19;6213935;28;96547;-67
2022/01/05 04:16:09;;;;;;;;;11.20;9.00;;;;;13.49;52.13;96967.88;6213022;28;96401;-68
2022/01/05 04:19:12;;;;;;;;;8.00;8.00;;;;;13.52;52.09;96984.34;6214038;28;96996;-66
2022/01/05 04:22:16;;;;;;;;;9.40;9.00;;;;;13.51;51.68;96981.91;6212776;28;97575;-67
2022/01/05 04:25:20;;;;;;;;;9.00;8.50;;;;;13.52;51.63;96981.66;6212892;28;97427;-65
2022/01/05 04:28:24;;;;;;;;;9.60;9.00;;;;;13.52;51.54;96965.41;6204901;28;97159;-68
2022/01/05 04:31:27;;;;;;;;;8.60;8.40;;;;;13.56;51.78;96971.03;6206168;28;97194;-66
2022/01/05 04:34:31;;;;;;;;;8.00;7.20;;;;;13.57;51.77;96984.31;6212631;28;97771;-65
2022/01/05 04:37:54;;;;;;;;;10.25;10.00;;;;;13.59;51.76;96982.09;6210570;28;98384;-65
2022/01/05 04:40:59;;;;;;;;;12.00;10.00;;;;;13.61;51.56;96988.03;6214162;28;96306;-64
2022/01/05 04:44:02;;;;;;;;;9.00;9.00;;;;;13.56;51.56;96990.81;6210594;28;99162;-65
2022/01/05 04:47:07;;;;;;;;;8.00;8.00;;;;;13.56;51.43;96990.81;6244071;27;97841;-64
2022/01/05 04:50:14;;;;;;;;;8.50;8.00;;;;;13.52;51.09;96999.78;6210772;28;96975;-68
2022/01/05 04:53:19;;;;;;;;;9.00;8.00;;;;;13.49;51.10;96995.72;6209960;28;97438;-67
2022/01/05 04:56:24;;;;;;;;;9.00;8.00;;;;;13.50;51.38;97002.78;6211179;28;96762;-68
2022/01/05 04:59:27;;;;;;;;;9.00;9.00;;;;;13.59;51.15;97014.59;6212616;28;97032;-65
2022/01/05 05:02:30;;;;;;;;;9.00;8.00;;;;;13.62;51.16;97018.63;6211063;28;98310;-67
2022/01/05 05:05:35;;;;;;;;;10.00;9.00;;;;;13.62;50.76;97011.31;6210246;28;98058;-65
2022/01/05 05:08:39;;;;;;;;;9.60;9.00;;;;;13.64;50.93;97021.84;6194185;28;96662;-65
2022/01/05 05:11:43;;;;;;;;;10.00;9.00;;;;;13.64;51.05;97021.84;6209413;28;97319;-67
2022/01/05 05:14:47;;;;;;;;;8.00;8.00;;;;;13.64;51.06;97019.94;6212542;28;96500;-65
2022/01/05 05:17:50;;;;;;;;;9.40;8.00;;;;;13.61;51.14;97009.69;6211553;28;99892;-69
2022/01/05 05:20:53;;;;;;;;;11.00;8.00;;;;;13.63;51.55;97020.25;6212826;28;97429;-68
2022/01/05 05:23:56;;;;;;;;;10.00;8.20;;;;;13.64;51.36;97016.44;6211248;28;96630;-68
2022/01/05 05:27:01;;;;;;;;;9.80;9.40;;;;;13.63;51.19;97015.66;6212958;28;97030;-66
2022/01/05 05:30:06;;;;;;;;;12.00;10.00;;;;;13.66;51.42;97017.78;6211697;28;97925;-66
2022/01/05 05:33:09;;;;;;;;;12.00;9.40;;;;;13.67;51.19;97015.88;6212925;28;96510;-66
2022/01/05 05:36:12;;;;;;;;;12.00;11.00;;;;;13.67;51.12;97016.69;6213373;28;97457;-66
2022/01/05 05:39:16;;;;;;;;;10.00;9.00;;;;;13.69;51.01;97025.31;6194898;28;97134;-68
2022/01/05 05:42:20;;;;;;;;;14.00;12.00;;;;;13.69;51.04;97024.50;6226527;27;96814;-66
2022/01/05 05:45:24;;;;;;;;;8.80;8.00;;;;;13.66;51.27;97031.31;6212103;28;96601;-66
2022/01/05 05:48:27;;;;;;;;;9.00;8.40;;;;;13.58;51.73;97014.88;6245024;27;96434;-66
2022/01/05 05:51:30;;;;;;;;;12.00;10.00;;;;;13.53;51.91;97012.22;6211883;28;96698;-66
2022/01/05 05:54:34;;;;;;;;;9.00;9.00;;;;;13.48;51.92;97021.22;6210601;28;97635;-66
2022/01/05 05:57:39;;;;;;;;;11.00;9.00;;;;;13.47;52.16;97025.00;6212369;28;96511;-66
2022/01/05 06:00:42;;;;;;;;;10.20;9.00;;;;;13.48;51.99;97017.69;6209701;28;96710;-69
2022/01/05 06:03:46;;;;;;;;;11.00;9.00;;;;;13.43;52.17;97021.25;6227224;27;96694;-68
2022/01/05 06:06:50;;;;;;;;;11.00;10.00;;;;;13.35;52.21;97011.03;6226953;28;97432;-66
2022/01/05 06:09:53;;;;;;;;;9.00;8.80;;;;;13.32;52.42;97011.63;6212411;28;97428;-68
2022/01/05 06:12:57;;;;;;;;;9.80;9.80;;;;;13.22;52.46;97009.81;6208758;28;97331;-68
2022/01/05 06:16:01;;;;;;;;;11.40;9.80;;;;;13.12;52.57;97009.06;6209723;28;98003;-68
2022/01/05 06:19:04;;;;;;;;;8.20;8.00;;;;;13.19;52.60;97032.03;6212081;28;97121;-66
2022/01/05 06:22:08;;;;;;;;;10.00;9.40;;;;;13.15;52.47;97024.72;6221781;28;97677;-68
2022/01/05 06:25:13;;;;;;;;;10.50;10.00;;;;;13.29;52.28;97033.84;6209151;28;99577;-67
2022/01/05 06:28:17;;;;;;;;;10.50;10.00;;;;;13.30;52.29;97036.25;6201793;28;96969;-66
2022/01/05 06:31:20;;;;;;;;;12.00;10.00;;;;;13.31;52.33;97005.38;6200754;28;96911;-68
2022/01/05 06:34:24;;;;;;;;;10.60;10.00;;;;;13.27;52.23;97004.34;6212117;28;96631;-65
2022/01/05 06:37:27;;;;;;;;;10.60;9.60;;;;;13.28;52.28;97005.16;6205788;28;98224;-65
2022/01/05 06:40:31;;;;;;;;;10.00;10.00;;;;;13.27;52.15;97015.19;6204699;28;97495;-65
2022/01/05 06:43:35;;;;;;;;;10.00;10.00;;;;;13.25;51.94;97030.88;6203598;28;97543;-66
2022/01/05 06:46:39;;;;;;;;;9.00;8.20;;;;;13.21;52.23;97029.81;6192656;28;97228;-66
2022/01/05 06:49:42;;;;;;;;;12.00;11.00;;;;;13.23;52.14;97022.25;6189653;28;97202;-66
2022/01/05 06:52:46;;;;;;;;;13.00;11.00;;;;;13.31;51.93;97013.50;6195690;28;97290;-66
2022/01/05 06:55:49;;;;;;;;;12.00;11.00;;;;;13.35;51.78;97032.69;6195125;28;96497;-66
2022/01/05 06:58:54;;;;;;;;;12.00;11.25;;;;;13.33;51.45;97030.28;6203415;28;97338;-66
2022/01/05 07:01:57;;;;;;;;;13.80;12.20;;;;;13.34;51.50;97031.88;6209762;28;97440;-66
2022/01/05 07:05:00;;;;;;;;;10.00;9.00;;;;;13.31;51.34;97045.16;6207525;28;96729;-67
2022/01/05 07:08:04;;;;;;;;;12.40;11.00;;;;;13.31;51.43;97062.22;6204385;28;97770;-65
2022/01/05 07:11:07;;;;;;;;;10.40;9.40;;;;;13.29;51.30;97058.19;6208879;28;98066;-66
2022/01/05 07:14:12;;;;;;;;;11.20;11.00;;;;;13.31;50.99;97064.13;6210536;28;98054;-67
2022/01/05 07:17:16;;;;;;;;;10.00;10.00;;;;;13.34;50.89;97055.44;6209449;28;96634;-65
2022/01/05 07:20:23;;;;;;;;;13.50;12.00;;;;;13.35;50.76;97055.16;6195607;28;97535;-68
2022/01/05 07:23:26;;;;;;;;;10.40;9.00;;;;;13.37;50.83;97047.56;6191839;28;97924;-66
2022/01/05 07:26:29;;;;;;;;;11.75;10.00;;;;;13.37;51.11;97061.09;6192086;28;96728;-66
2022/01/05 07:29:34;;;;;;;;;9.20;9.00;;;;;13.38;51.17;97059.19;6210076;28;97997;-65
2022/01/05 07:32:39;;;;;;;;;12.00;11.50;;;;;13.39;51.36;97063.50;6204896;28;96889;-67
2022/01/05 07:35:42;;;;;;;;;10.00;10.00;;;;;13.41;51.52;97053.19;6169747;28;96860;-68
2022/01/05 07:38:45;;;;;;;;;13.00;11.25;;;;;13.37;51.66;97055.69;6202285;28;97197;-67
2022/01/05 07:41:49;;;;;;;;;15.00;11.00;;;;;13.35;51.83;97048.91;6208990;28;96616;-66
2022/01/05 07:44:57;;;;;;;;;12.00;10.80;;;;;13.37;51.75;97050.28;6191335;28;96888;-66
2022/01/05 07:48:00;;;;;;;;;14.00;12.50;;;;;13.37;51.91;97052.97;6210197;28;97001;-64
2022/01/05 07:51:03;;;;;;;;;13.00;12.00;;;;;13.38;51.92;97051.06;6208416;28;97807;-65
2022/01/05 07:54:07;;;;;;;;;13.00;12.00;;;;;13.40;51.90;97048.88;6206781;28;97190;-66
2022/01/05 07:57:10;;;;;;;;;16.00;13.00;;;;;13.36;52.08;97047.84;6200128;28;97261;-66
2022/01/05 08:00:15;;;;;;;;;16.00;15.00;;;;;13.30;52.00;97049.78;6198485;28;98318;-67
2022/01/05 08:03:19;;;;;;;;;14.00;13.00;;;;;13.40;51.99;97046.97;6231521;27;97387;-66
2022/01/05 08:06:42;;;;;;;;;15.00;14.00;;;;;13.38;52.11;97029.44;6195566;28;97219;-65
2022/01/05 08:09:45;;;;;;;;;17.00;14.60;;;;;13.39;52.30;97045.34;6184572;28;99491;-66
2022/01/05 08:12:48;;;;;;;;;19.00;17.00;;;;;13.44;52.18;97034.50;6197121;28;96963;-67
2022/01/05 08:15:54;;;;;;;;;16.20;14.20;;;;;13.43;52.49;97029.38;6205336;28;98374;-68
2022/01/05 08:18:57;;;;;;;;;18.00;15.40;;;;;13.40;52.42;97014.50;6212429;28;97893;-69
2022/01/05 08:22:00;;;;;;;;;15.40;14.40;;;;;13.41;52.34;97026.94;6222594;27;96644;-68
2022/01/05 08:25:04;;;;;;;;;16.00;15.00;;;;;13.35;52.46;97028.06;6213186;28;97645;-65
2022/01/05 08:28:10;;;;;;;;;18.00;16.40;;;;;13.35;52.33;97044.31;6210686;28;96685;-67
2022/01/05 08:31:16;;;;;;;;;16.80;16.00;;;;;13.32;52.33;97047.59;6225422;28;98177;-68
2022/01/05 08:34:22;;;;;;;;;16.00;15.00;;;;;13.29;52.40;97048.16;6210930;28;96536;-66
2022/01/05 08:37:26;;;;;;;;;15.80;14.40;;;;;13.30;52.46;97043.53;6210434;28;97330;-66
2022/01/05 08:40:30;;;;;;;;;16.00;15.00;;;;;13.25;52.17;97052.53;6223707;28;97878;-66
2022/01/05 08:43:33;;;;;;;;;13.00;12.00;;;;;13.23;52.17;97038.47;6228055;28;98029;-68
2022/01/05 08:46:38;;;;;;;;;14.40;14.00;;;;;13.25;52.35;97046.28;6208805;28;100139;-67
2022/01/05 08:49:42;;;;;;;;;16.50;15.00;;;;;13.19;52.51;97042.84;6180140;28;98460;-67
2022/01/05 08:52:46;;;;;;;;;16.60;13.60;;;;;13.29;52.27;97042.75;6196039;28;98399;-65
2022/01/05 08:55:51;;;;;;;;;16.60;13.00;;;;;13.23;52.31;97043.09;6197094;28;97030;-67
2022/01/05 08:58:55;;;;;;;;;16.00;13.25;;;;;13.12;52.45;97030.72;6196202;28;98373;-66
2022/01/05 09:02:00;;;;;;;;;15.00;13.80;;;;;13.16;52.27;97045.28;6191969;28;97617;-69
2022/01/05 09:05:05;;;;;;;;;14.20;12.20;;;;;13.13;52.41;97049.38;6201086;28;96845;-67
2022/01/05 09:08:08;;;;;;;;;11.00;11.00;;;;;13.09;52.38;97050.19;6192763;28;97072;-66
2022/01/05 09:11:11;;;;;;;;;13.00;13.00;;;;;13.07;52.86;97055.88;6191623;28;97750;-68
2022/01/05 09:14:15;;;;;;;;;14.00;13.00;;;;;13.14;52.56;97069.94;6203007;28;96835;-67
2022/01/05 09:17:20;;;;;;;;;13.00;12.00;;;;;13.19;52.21;97085.34;6217479;27;98315;-68
2022/01/05 09:20:23;;;;;;;;;14.00;13.00;;;;;13.19;52.24;97091.56;6210097;28;97476;-66
2022/01/05 09:23:26;;;;;;;;;15.00;14.00;;;;;13.24;52.09;97090.72;6208537;28;96597;-65
2022/01/05 09:26:30;;;;;;;;;14.00;14.00;;;;;13.23;52.04;97099.91;6202391;28;98087;-69
2022/01/05 09:29:34;;;;;;;;;14.00;12.75;;;;;13.25;52.18;97092.28;6214609;28;96982;-67
2022/01/05 09:32:40;;;;;;;;;14.00;13.00;;;;;13.29;52.37;97098.78;6198266;28;97567;-66
2022/01/05 09:35:45;;;;;;;;;15.00;14.60;;;;;13.27;52.38;97111.78;6210809;28;97027;-68
2022/01/05 09:42:17;;;;;;;;;17.00;14.75;;;;;13.16;52.43;97099.41;6200918;28;96641;-67
2022/01/05 09:45:22;;;;;;;;;14.20;12.80;;;;;13.15;52.14;97105.91;6200874;28;97198;-65
2022/01/05 09:48:42;;;;;;;;;15.40;13.40;;;;;13.10;52.20;97116.72;6193438;28;97614;-67
2022/01/05 09:51:52;;;;;;;;;13.20;13.00;;;;;13.07;52.39;97114.59;6199125;28;97309;-67
2022/01/05 09:54:56;;;;;;;;;11.20;10.20;;;;;12.97;52.38;97115.47;6197637;28;97810;-65
2022/01/05 09:58:00;;;;;;;;;13.40;13.00;;;;;12.97;52.71;97105.44;6204543;28;97027;-65
2022/01/05 10:01:04;;;;;;;;;12.40;11.00;;;;;13.05;52.38;97109.44;6192934;28;96449;-68
2022/01/05 10:04:10;;;;;;;;;11.40;9.00;;;;;13.03;51.97;97104.34;6199147;28;96663;-67
2022/01/05 10:07:14;;;;;;;;;8.60;8.00;;;;;12.91;50.43;97100.34;6208689;28;96940;-70
2022/01/05 10:10:18;;;;;;;;;4.75;4.00;;;;;12.61;49.15;97082.41;6210723;28;97580;-67
2022/01/05 10:13:25;;;;;;;;;5.00;4.00;;;;;12.78;49.76;97101.78;6210803;28;98226;-67
2022/01/05 10:16:28;;;;;;;;;5.00;5.00;;;;;12.71;50.18;97106.69;6211127;28;96647;-68
2022/01/05 10:19:34;;;;;;;;;6.00;5.00;;;;;12.75;50.64;97112.34;6183806;28;96941;-68
2022/01/05 10:22:40;;;;;;;;;5.00;4.00;;;;;12.72;50.81;97099.38;6178910;28;97987;-64
2022/01/05 10:25:43;;;;;;;;;5.00;4.00;;;;;12.79;50.79;97099.91;6186755;28;96524;-65
2022/01/05 10:28:47;;;;;;;;;5.00;5.00;;;;;12.73;50.51;97092.88;6185609;28;97257;-66
2022/01/05 10:31:54;;;;;;;;;3.00;3.00;;;;;12.72;50.60;97083.97;6188579;28;96656;-67
2022/01/05 10:35:07;;;;;;;;;3.00;3.00;;;;;12.72;50.06;97077.75;6188001;28;97986;-66
2022/01/05 10:38:13;;;;;;;;;4.00;4.00;;;;;12.79;49.98;97075.56;6188457;28;97049;-63
2022/01/05 10:41:16;;;;;;;;;5.00;4.00;;;;;12.72;50.23;97085.84;6224401;27;96612;-65
2022/01/05 10:44:21;;;;;;;;;3.40;3.00;;;;;12.72;50.14;97083.97;6184761;28;99296;-67
2022/01/05 10:47:25;;;;;;;;;3.00;3.00;;;;;12.73;50.03;97087.47;6191417;28;97371;-64
2022/01/05 10:50:30;;;;;;;;;4.00;3.00;;;;;12.68;50.29;97085.63;6191472;28;97412;-67
2022/01/05 10:53:33;;;;;;;;;4.00;4.00;;;;;12.69;50.32;97084.53;6187904;28;97522;-67
2022/01/05 10:56:37;;;;;;;;;5.40;4.60;;;;;12.57;50.59;97065.94;6202189;28;97455;-67
2022/01/05 10:59:42;;;;;;;;;6.00;5.00;;;;;12.58;51.07;97080.25;6203978;28;97122;-66
2022/01/05 11:02:45;;;;;;;;;5.00;5.00;;;;;12.69;50.98;97073.72;6185873;28;97503;-69
2022/01/05 11:06:10;;;;;;;;;4.80;4.80;;;;;12.77;50.78;97062.31;6186959;28;96530;-68
2022/01/05 11:09:16;;;;;;;;;6.50;6.50;;;;;12.93;50.90;97053.00;6189438;28;97269;-66
2022/01/05 11:12:19;;;;;;;;;5.20;5.20;;;;;12.93;50.91;97063.84;6191240;28;97716;-66
2022/01/05 11:15:27;;;;;;;;;8.00;7.00;;;;;12.97;50.91;97051.34;6192329;28;97456;-65
2022/01/05 11:18:32;;;;;;;;;8.50;7.00;;;;;12.94;51.09;97041.13;6200919;28;96606;-66
2022/01/05 11:21:38;;;;;;;;;8.00;7.00;;;;;13.05;51.08;97047.22;6190871;28;96621;-68
2022/01/05 11:24:43;;;;;;;;;5.00;5.00;;;;;13.10;50.77;97047.19;6187973;28;97549;-65
2022/01/05 11:27:47;;;;;;;;;7.00;6.00;;;;;13.16;51.01;97039.88;6185285;28;98453;-66
2022/01/05 11:30:53;;;;;;;;;7.40;7.00;;;;;13.27;50.81;97044.13;6188725;28;96645;-67
2022/01/05 11:33:57;;;;;;;;;8.00;7.40;;;;;13.33;50.60;97048.41;6184671;28;96635;-65
2022/01/05 11:37:02;;;;;;;;;9.00;8.00;;;;;13.40;50.63;97032.63;6225979;27;96791;-68
2022/01/05 11:40:07;;;;;;;;;8.67;7.33;;;;;13.45;50.98;97036.09;6188592;28;97513;-66
2022/01/05 11:43:25;;;;;;;;;9.00;8.00;;;;;13.58;49.97;97036.56;6190172;28;96633;-67
2022/01/05 11:46:30;;;;;;;;;7.00;6.00;;;;;13.59;49.84;97041.66;6199411;28;97759;-64
2022/01/05 11:49:34;;;;;;;;;9.40;8.40;;;;;13.72;49.60;97040.19;6197528;28;96645;-64
2022/01/05 11:52:56;;;;;;;;;9.25;8.00;;;;;13.71;49.97;97044.81;6201678;28;97978;-65
2022/01/05 11:56:20;;;;;;;;;9.60;8.60;;;;;13.69;49.63;97052.38;6194661;28;97314;-66
2022/01/05 11:59:33;;;;;;;;;8.60;8.00;;;;;13.66;49.73;97061.09;6192493;28;96597;-67
2022/01/05 12:02:40;;;;;;;;;10.50;10.00;;;;;13.57;49.43;97054.69;6187116;28;96779;-65
2022/01/05 12:06:05;;;;;;;;;10.00;9.00;;;;;13.52;49.77;97068.28;6193212;28;97097;-67
2022/01/05 12:09:20;;;;;;;;;11.00;10.00;;;;;13.42;50.12;97069.16;6193757;28;96855;-69
2022/01/05 12:12:27;;;;;;;;;11.60;11.00;;;;;13.32;50.49;97055.72;6195185;28;96659;-65
2022/01/05 12:15:45;;;;;;;;;11.00;10.40;;;;;13.35;50.54;97068.69;6199590;28;96520;-64
2022/01/05 12:19:05;;;;;;;;;11.60;11.00;;;;;13.33;50.66;97059.25;6189674;28;97647;-67
2022/01/05 12:22:15;;;;;;;;;13.00;11.40;;;;;13.25;50.65;97040.88;6222615;27;96798;-68
2022/01/05 12:25:23;;;;;;;;;13.00;11.40;;;;;12.99;50.99;97016.72;6193488;28;97577;-68
2022/01/05 12:28:29;;;;;;;;;15.00;13.00;;;;;13.17;51.13;97063.16;6190546;28;97085;-65
2022/01/05 12:31:55;;;;;;;;;14.00;13.00;;;;;13.17;51.30;97068.56;6186199;28;97943;-67
2022/01/05 12:35:00;;;;;;;;;15.00;13.00;;;;;13.12;51.23;97080.22;6195823;28;97384;-68
2022/01/05 12:38:04;;;;;;;;;15.75;14.00;;;;;13.12;51.59;97074.00;6202549;28;97424;-68
2022/01/05 12:41:29;;;;;;;;;16.00;14.00;;;;;13.09;51.83;97083.47;6213937;28;97014;-67
2022/01/05 12:44:35;;;;;;;;;16.60;14.40;;;;;13.16;51.68;97075.06;6214612;28;96428;-65
2022/01/05 12:47:40;;;;;;;;;18.40;13.80;;;;;13.20;51.96;97078.81;6214465;28;96570;-66
2022/01/05 12:50:45;;;;;;;;;16.40;15.00;;;;;13.22;51.95;97076.63;6214285;28;97365;-66
2022/01/05 12:53:53;;;;;;;;;16.25;14.75;;;;;13.18;51.47;97081.81;6211329;28;97863;-63
2022/01/05 12:57:01;;;;;;;;;16.00;15.40;;;;;13.24;51.78;97069.06;6209564;28;96532;-65
2022/01/05 13:00:05;;;;;;;;;17.00;17.00;;;;;13.25;51.64;97076.06;6203368;28;96375;-67
2022/01/05 13:03:09;;;;;;;;;16.80;14.00;;;;;13.20;51.84;97076.09;6217303;28;100130;-66
2022/01/05 13:06:17;;;;;;;;;16.00;13.00;;;;;13.22;51.52;97076.63;6210782;28;97502;-67
2022/01/05 13:09:26;;;;;;;;;15.40;14.60;;;;;13.16;51.63;97061.53;6211477;28;99534;-66
2022/01/05 13:12:31;;;;;;;;;14.80;12.80;;;;;13.08;51.27;97073.75;6213254;28;98160;-68
2022/01/05 13:15:34;;;;;;;;;14.00;12.25;;;;;13.00;51.57;97082.44;6211469;28;98484;-68
2022/01/05 13:18:38;;;;;;;;;16.60;14.60;;;;;13.01;51.28;97078.66;6213011;28;96996;-67
2022/01/05 13:21:45;;;;;;;;;14.00;13.00;;;;;12.93;51.41;97069.25;6212349;28;96513;-65
2022/01/05 13:24:56;;;;;;;;;13.00;12.60;;;;;13.01;51.55;97068.63;6194993;28;97752;-66
2022/01/05 13:28:04;;;;;;;;;15.75;14.00;;;;;13.02;51.31;97085.69;6213232;28;96709;-66
2022/01/05 13:31:11;;;;;;;;;14.00;13.40;;;;;13.05;51.14;97082.41;6212260;28;97913;-66
2022/01/05 13:34:14;;;;;;;;;17.80;16.00;;;;;13.04;50.91;97083.50;6207655;28;97259;-66
2022/01/05 13:37:30;;;;;;;;;18.00;15.00;;;;;13.08;51.34;97108.09;6212212;28;96730;-67
2022/01/05 13:40:35;;;;;;;;;15.00;14.00;;;;;13.12;51.08;97101.88;6212632;28;98013;-70
2022/01/05 13:43:40;;;;;;;;;14.00;13.00;;;;;13.09;50.80;97110.53;6207149;28;97064;-66
2022/01/05 13:46:44;;;;;;;;;15.00;13.00;;;;;13.11;50.65;97104.81;6210665;28;96271;-67
2022/01/05 13:50:09;;;;;;;;;12.00;11.00;;;;;13.03;50.61;97109.75;6208961;28;98351;-68
2022/01/05 13:53:15;;;;;;;;;14.40;13.00;;;;;13.13;50.54;97099.97;6207905;28;97311;-66
2022/01/05 13:56:21;;;;;;;;;10.00;10.00;;;;;13.05;50.12;97087.81;6210996;28;97437;-66
2022/01/05 13:59:40;;;;;;;;;12.00;11.00;;;;;13.25;49.52;97111.25;6207502;28;97586;-66
2022/01/05 14:02:43;;;;;;;;;11.00;9.00;;;;;13.14;49.65;97102.41;6210802;28;97547;-66
2022/01/05 14:05:49;;;;;;;;;9.00;8.00;;;;;13.12;49.47;97101.06;6226896;28;96701;-65
2022/01/05 14:08:54;;;;;;;;;9.00;8.00;;;;;13.06;49.45;97112.97;6207852;28;98643;-66
2022/01/05 14:11:58;;;;;;;;;7.25;7.00;;;;;13.13;49.11;97119.72;6210333;28;96787;-68
2022/01/05 14:15:05;;;;;;;;;11.40;9.40;;;;;13.03;49.13;97117.06;6211426;28;98001;-68
2022/01/05 14:18:12;;;;;;;;;6.00;6.00;;;;;12.93;49.16;97120.63;6212579;28;97476;-68
2022/01/05 14:21:26;;;;;;;;;6.60;6.00;;;;;12.97;48.90;97126.28;6212606;28;96977;-66
2022/01/05 14:24:32;;;;;;;;;7.75;6.75;;;;;12.92;48.58;97129.81;6194038;28;97011;-67